createdAt,value
2023-03-02T00:00:34.917Z,6.90
2023-03-02T00:03:02.585Z,7.00
2023-03-02T00:05:30.082Z,8.90
2023-03-02T00:07:58.036Z,8.43
2023-03-02T00:10:25.688Z,8.63
2023-03-02T00:12:53.065Z,6.30
2023-03-02T00:15:20.219Z,7.67
2023-03-02T00:17:47.578Z,6.97
2023-03-02T00:20:14.854Z,6.37
2023-03-02T00:22:44.852Z,6.33
2023-03-02T00:25:13.245Z,6.70
2023-03-02T00:27:40.535Z,8.50
2023-03-02T00:30:08.133Z,6.77
2023-03-02T00:32:35.472Z,6.43
2023-03-02T00:35:03.074Z,6.87
2023-03-02T00:37:30.208Z,15.37
2023-03-02T00:39:57.389Z,7.90
2023-03-02T00:42:24.606Z,7.20
2023-03-02T00:44:53.496Z,6.73
2023-03-02T00:47:20.784Z,7.37
2023-03-02T00:49:49.509Z,7.87
2023-03-02T00:52:17.275Z,6.33
2023-03-02T00:54:44.425Z,7.80
2023-03-02T00:57:11.691Z,7.53
2023-03-02T00:59:39.566Z,7.07
2023-03-02T01:02:07.405Z,7.57
2023-03-02T01:04:39.651Z,6.97
2023-03-02T01:07:11.713Z,7.63
2023-03-02T01:09:39.948Z,7.13
2023-03-02T01:12:11.255Z,8.10
2023-03-02T01:14:39.712Z,6.80
2023-03-02T01:17:07.604Z,7.00
2023-03-02T01:19:34.932Z,7.03
2023-03-02T01:22:02.596Z,6.73
2023-03-02T01:24:29.818Z,7.40
2023-03-02T01:26:57.102Z,7.10
2023-03-02T01:29:24.313Z,7.40
2023-03-02T01:31:51.605Z,6.70
2023-03-02T01:34:18.925Z,6.93
2023-03-02T01:36:46.039Z,6.77
2023-03-02T01:39:17.065Z,7.47
2023-03-02T01:41:45.395Z,7.17
2023-03-02T01:44:31.219Z,7.20
2023-03-02T01:46:58.388Z,6.73
2023-03-02T01:49:25.720Z,6.80
2023-03-02T01:51:53.090Z,6.73
2023-03-02T01:54:23.429Z,7.63
2023-03-02T01:56:51.981Z,7.50
2023-03-02T01:59:22.124Z,7.50
2023-03-02T02:01:52.948Z,7.03
2023-03-02T02:04:21.378Z,7.73
2023-03-02T02:06:54.712Z,7.37
2023-03-02T02:09:23.731Z,7.60
2023-03-02T02:11:50.960Z,7.23
2023-03-02T02:14:18.133Z,7.70
2023-03-02T02:16:45.364Z,8.17
2023-03-02T02:19:15.295Z,7.27
2023-03-02T02:21:42.653Z,7.40
2023-03-02T02:24:12.673Z,6.97
2023-03-02T02:26:43.238Z,6.43
2023-03-02T02:29:22.569Z,7.53
2023-03-02T02:31:53.893Z,8.03
2023-03-02T02:34:23.298Z,7.53
2023-03-02T02:36:53.696Z,6.97
2023-03-02T02:39:29.313Z,7.90
2023-03-02T02:41:59.087Z,10.43
2023-03-02T02:44:26.272Z,8.70
2023-03-02T02:46:53.442Z,8.77
2023-03-02T02:49:23.741Z,7.10
2023-03-02T02:51:51.108Z,7.73
2023-03-02T02:54:18.860Z,7.70
2023-03-02T02:56:47.841Z,7.90
2023-03-02T02:59:20.370Z,7.17
2023-03-02T03:01:48.596Z,7.30
2023-03-02T03:04:21.035Z,7.60
2023-03-02T03:06:55.868Z,8.67
2023-03-02T03:09:23.349Z,6.73
2023-03-02T03:11:52.842Z,7.17
2023-03-02T03:14:22.310Z,6.73
2023-03-02T03:16:50.235Z,7.20
2023-03-02T03:19:20.021Z,6.97
2023-03-02T03:21:48.455Z,6.73
2023-03-02T03:24:15.599Z,7.00
2023-03-02T03:26:42.761Z,7.93
2023-03-02T03:29:10.314Z,7.10
2023-03-02T03:31:37.777Z,7.37
2023-03-02T03:34:05.226Z,7.13
2023-03-02T03:36:33.036Z,7.10
2023-03-02T03:39:00.684Z,7.63
2023-03-02T03:41:27.960Z,6.67
2023-03-02T03:43:55.456Z,7.10
2023-03-02T03:46:22.759Z,7.13
2023-03-02T03:48:50.085Z,8.43
2023-03-02T03:51:17.654Z,6.83
2023-03-02T03:53:44.795Z,7.03
2023-03-02T03:56:12.229Z,6.80
2023-03-02T03:58:39.489Z,7.23
2023-03-02T04:01:06.728Z,7.20
2023-03-02T04:03:33.894Z,7.40
2023-03-02T04:06:01.082Z,7.57
2023-03-02T04:08:28.250Z,7.63
2023-03-02T04:10:55.437Z,7.00
2023-03-02T04:13:22.621Z,6.63
2023-03-02T04:15:50.049Z,7.57
2023-03-02T04:18:17.214Z,8.70
2023-03-02T04:20:44.442Z,7.40
2023-03-02T04:23:11.778Z,7.60
2023-03-02T04:25:38.960Z,8.03
2023-03-02T04:28:06.295Z,8.07
2023-03-02T04:30:33.453Z,7.73
2023-03-02T04:33:00.636Z,7.83
2023-03-02T04:35:27.841Z,7.60
2023-03-02T04:37:55.046Z,7.13
2023-03-02T04:40:22.194Z,6.73
2023-03-02T04:42:49.336Z,7.37
2023-03-02T04:45:16.748Z,6.80
2023-03-02T04:47:43.957Z,6.90
2023-03-02T04:50:12.615Z,7.83
2023-03-02T04:52:39.956Z,6.50
2023-03-02T04:55:07.631Z,6.40
2023-03-02T04:57:34.805Z,7.23
2023-03-02T05:00:02.020Z,6.87
2023-03-02T05:02:29.211Z,7.33
2023-03-02T05:04:56.553Z,6.73
2023-03-02T05:07:23.895Z,7.10
2023-03-02T05:09:51.045Z,7.07
2023-03-02T05:12:19.255Z,6.60
2023-03-02T05:14:46.432Z,6.90
2023-03-02T05:17:13.641Z,7.10
2023-03-02T05:19:40.830Z,6.60
2023-03-02T05:22:08.006Z,7.33
2023-03-02T05:24:35.739Z,7.17
2023-03-02T05:27:02.914Z,7.10
2023-03-02T05:29:30.089Z,6.93
2023-03-02T05:31:57.677Z,6.53
2023-03-02T05:34:24.893Z,6.30
2023-03-02T05:36:52.214Z,6.20
2023-03-02T05:39:19.501Z,6.37
2023-03-02T05:41:46.721Z,7.87
2023-03-02T05:44:13.938Z,6.73
2023-03-02T05:46:43.872Z,7.07
2023-03-02T05:49:14.294Z,6.93
2023-03-02T05:51:41.433Z,7.20
2023-03-02T05:54:08.810Z,6.80
2023-03-02T05:56:36.058Z,8.07
2023-03-02T05:59:03.405Z,6.77
2023-03-02T06:01:30.758Z,7.00
2023-03-02T06:03:58.105Z,6.37
2023-03-02T06:06:25.445Z,6.63
2023-03-02T06:08:52.670Z,6.27
2023-03-02T06:11:19.860Z,6.90
2023-03-02T06:13:47.017Z,6.47
2023-03-02T06:16:14.287Z,6.07
2023-03-02T06:18:41.758Z,6.10
2023-03-02T06:21:08.984Z,6.63
2023-03-02T06:23:36.126Z,6.23
2023-03-02T06:26:09.416Z,6.83
2023-03-02T06:28:49.767Z,7.17
2023-03-02T06:31:18.462Z,7.33
2023-03-02T06:33:45.662Z,7.00
2023-03-02T06:36:12.958Z,6.40
2023-03-02T06:38:40.590Z,6.70
2023-03-02T06:41:07.767Z,6.60
2023-03-02T06:43:34.941Z,6.77
2023-03-02T06:46:02.317Z,6.93
2023-03-02T06:48:29.498Z,7.30
2023-03-02T06:50:56.625Z,6.90
2023-03-02T06:53:23.825Z,7.27
2023-03-02T06:55:51.491Z,6.90
2023-03-02T06:58:18.701Z,7.47
2023-03-02T07:00:45.969Z,7.17
2023-03-02T07:03:13.362Z,7.37
2023-03-02T07:05:40.726Z,8.00
2023-03-02T07:08:08.061Z,7.27
2023-03-02T07:10:35.735Z,7.67
2023-03-02T07:13:03.099Z,7.33
2023-03-02T07:15:30.355Z,7.40
2023-03-02T07:17:57.586Z,6.93
2023-03-02T07:20:24.740Z,6.70
2023-03-02T07:22:51.940Z,7.17
2023-03-02T07:25:19.071Z,6.90
2023-03-02T07:27:46.301Z,7.53
2023-03-02T07:30:14.925Z,7.37
2023-03-02T07:32:42.779Z,7.00
2023-03-02T07:35:10.304Z,7.17
2023-03-02T07:37:37.588Z,7.53
2023-03-02T07:40:05.952Z,7.53
2023-03-02T07:42:33.567Z,7.33
2023-03-02T07:45:00.713Z,7.33
2023-03-02T07:47:28.204Z,6.87
2023-03-02T07:52:41.534Z,7.00
2023-03-02T07:55:09.029Z,7.60
2023-03-02T07:57:36.171Z,7.77
2023-03-02T08:00:03.874Z,18.63
2023-03-02T08:02:33.618Z,8.97
2023-03-02T08:05:00.829Z,7.50
2023-03-02T08:07:27.984Z,7.73
2023-03-02T08:09:55.175Z,7.67
2023-03-02T08:12:23.356Z,6.97
2023-03-02T08:14:53.380Z,7.03
2023-03-02T08:17:20.589Z,7.17
2023-03-02T08:19:48.247Z,7.30
2023-03-02T08:22:15.562Z,7.10
2023-03-02T08:24:43.756Z,7.33
2023-03-02T08:27:14.875Z,7.20
2023-03-02T08:29:42.315Z,7.30
2023-03-02T08:32:09.740Z,6.43
2023-03-02T08:34:37.051Z,7.10
2023-03-02T08:37:04.317Z,6.27
2023-03-02T08:39:32.219Z,6.93
2023-03-02T08:41:59.556Z,6.57
2023-03-02T08:44:26.808Z,10.40
2023-03-02T08:46:55.069Z,7.70
2023-03-02T08:49:22.338Z,7.23
2023-03-02T08:51:53.432Z,6.63
2023-03-02T08:54:21.917Z,7.00
2023-03-02T08:56:50.159Z,6.43
2023-03-02T08:59:18.429Z,7.20
2023-03-02T09:01:45.949Z,7.10
2023-03-02T09:04:13.211Z,6.50
2023-03-02T09:06:41.880Z,7.17
2023-03-02T09:09:11.007Z,6.87
2023-03-02T09:11:38.304Z,6.57
2023-03-02T09:14:05.474Z,7.87
2023-03-02T09:16:32.652Z,7.40
2023-03-02T09:18:59.830Z,6.47
2023-03-02T09:21:26.970Z,7.10
2023-03-02T09:23:58.044Z,6.23
2023-03-02T09:26:26.336Z,6.33
2023-03-02T09:28:53.532Z,6.70
2023-03-02T09:31:20.901Z,6.10
2023-03-02T09:33:48.206Z,6.73
2023-03-02T09:36:19.811Z,7.53
2023-03-02T09:38:47.329Z,7.53
2023-03-02T09:41:20.513Z,6.90
2023-03-02T09:44:06.409Z,8.30
2023-03-02T09:46:44.314Z,7.77
2023-03-02T09:49:17.893Z,7.60
2023-03-02T09:51:56.724Z,7.03
2023-03-02T09:54:25.497Z,6.97
2023-03-02T09:56:57.721Z,6.73
2023-03-02T09:59:24.922Z,8.17
2023-03-02T10:01:54.933Z,7.10
2023-03-02T10:04:26.939Z,6.70
2023-03-02T10:06:57.374Z,6.73
2023-03-02T10:09:24.819Z,7.00
2023-03-02T10:12:10.400Z,7.10
2023-03-02T10:14:42.723Z,7.70
2023-03-02T10:17:12.656Z,7.33
2023-03-02T10:19:45.177Z,7.63
2023-03-02T10:22:33.462Z,7.73
2023-03-02T10:25:17.829Z,7.47
2023-03-02T10:27:51.070Z,26.43
2023-03-02T10:30:21.361Z,8.63
2023-03-02T10:32:50.117Z,8.07
2023-03-02T10:35:23.049Z,7.27
2023-03-02T10:37:58.991Z,8.10
2023-03-02T10:40:26.114Z,6.90
2023-03-02T10:42:54.002Z,7.70
2023-03-02T10:45:23.985Z,8.10
2023-03-02T10:48:00.666Z,7.43
2023-03-02T10:50:27.840Z,8.23
2023-03-02T10:53:00.268Z,8.47
2023-03-02T10:55:28.340Z,7.80
2023-03-02T10:58:01.505Z,8.70
2023-03-02T11:00:29.927Z,8.70
2023-03-02T11:03:17.953Z,7.87
2023-03-02T11:05:45.480Z,7.73
2023-03-02T11:08:19.265Z,8.87
2023-03-02T11:11:00.542Z,7.70
2023-03-02T11:13:33.509Z,8.30
2023-03-02T11:16:02.030Z,7.83
2023-03-02T11:18:38.332Z,8.03
2023-03-02T11:21:07.016Z,7.43
2023-03-02T11:23:46.006Z,7.60
2023-03-02T11:26:22.712Z,7.25
2023-03-02T11:29:01.608Z,7.30
2023-03-02T11:31:33.864Z,7.57
2023-03-02T11:34:18.362Z,6.50
2023-03-02T11:36:51.442Z,7.90
2023-03-02T11:39:22.520Z,7.22
2023-03-02T11:41:50.574Z,7.80
2023-03-02T11:44:19.413Z,7.40
2023-03-02T11:46:49.409Z,7.68
2023-03-02T11:49:22.107Z,8.32
2023-03-02T11:51:58.915Z,7.95
2023-03-02T11:54:36.655Z,10.00
2023-03-02T11:57:04.812Z,7.65
2023-03-02T11:59:34.036Z,6.95
2023-03-02T12:02:01.555Z,7.45
2023-03-02T12:04:33.975Z,7.30
2023-03-02T12:07:15.647Z,7.50
2023-03-02T12:09:42.909Z,6.93
2023-03-02T12:12:30.395Z,6.97
2023-03-02T12:14:57.228Z,10.80
2023-03-02T12:17:27.051Z,48.42
2023-03-02T12:20:09.037Z,11.30
2023-03-02T12:22:37.523Z,7.20
2023-03-02T12:25:23.932Z,8.02
2023-03-02T12:27:52.371Z,6.38
2023-03-02T12:30:23.728Z,7.28
2023-03-02T12:33:18.878Z,7.28
2023-03-02T12:35:46.682Z,7.60
2023-03-02T12:38:16.836Z,6.60
2023-03-02T12:40:49.819Z,6.65
2023-03-02T12:43:33.683Z,7.00
2023-03-02T12:46:04.006Z,6.95
2023-03-02T12:48:32.730Z,7.35
2023-03-02T12:51:04.362Z,6.80
2023-03-02T12:53:32.144Z,6.72
2023-03-02T12:55:59.370Z,6.35
2023-03-02T12:58:28.649Z,6.05
2023-03-02T13:00:57.395Z,8.10
2023-03-02T13:03:26.510Z,21.45
2023-03-02T13:06:10.815Z,7.88
2023-03-02T13:08:38.937Z,6.47
2023-03-02T13:11:06.128Z,6.90
2023-03-02T13:13:32.990Z,6.28
2023-03-02T13:16:19.140Z,6.55
2023-03-02T13:18:47.104Z,6.20
2023-03-02T13:21:14.977Z,7.15
2023-03-02T13:23:51.803Z,5.95
2023-03-02T13:26:30.906Z,7.10
2023-03-02T13:29:23.121Z,6.90
2023-03-02T13:31:50.214Z,6.65
2023-03-02T13:34:33.177Z,12.05
2023-03-02T13:36:59.992Z,7.03
2023-03-02T13:39:30.456Z,7.30
2023-03-02T13:42:02.358Z,6.45
2023-03-02T13:44:34.032Z,5.90
2023-03-02T13:47:02.091Z,6.45
2023-03-02T13:49:35.296Z,6.53
2023-03-02T13:52:08.412Z,27.55
2023-03-02T13:54:40.893Z,7.55
2023-03-02T13:57:15.119Z,6.72
2023-03-02T13:59:42.209Z,6.55
2023-03-02T14:02:25.444Z,6.13
2023-03-02T14:04:52.585Z,6.22
2023-03-02T14:07:20.721Z,10.23
2023-03-02T14:09:48.348Z,5.88
2023-03-02T14:12:28.642Z,6.72
2023-03-02T14:14:59.795Z,7.00
2023-03-02T14:17:26.913Z,6.95
2023-03-02T14:19:55.184Z,6.50
2023-03-02T14:22:23.759Z,6.65
2023-03-02T14:24:51.242Z,6.55
2023-03-02T14:27:18.911Z,7.25
2023-03-02T14:29:46.715Z,6.05
2023-03-02T14:32:15.150Z,5.75
2023-03-02T14:34:42.538Z,6.55
2023-03-02T14:37:18.137Z,6.80
2023-03-02T14:39:55.632Z,6.57
2023-03-02T14:42:23.257Z,7.63
2023-03-02T14:44:51.094Z,12.50
2023-03-02T14:47:19.523Z,7.70
2023-03-02T14:49:46.806Z,7.47
2023-03-02T14:52:42.541Z,6.72
2023-03-02T14:55:28.312Z,6.35
2023-03-02T14:58:04.931Z,6.78
2023-03-02T15:00:31.975Z,6.60
2023-03-02T15:02:59.882Z,6.30
2023-03-02T15:05:26.797Z,6.65
2023-03-02T15:07:58.808Z,7.70
2023-03-02T15:10:25.862Z,8.02
2023-03-02T15:12:52.723Z,8.25
2023-03-02T15:15:19.538Z,7.95
2023-03-02T15:17:46.309Z,7.80
2023-03-02T15:20:15.674Z,7.70
2023-03-02T15:22:42.594Z,7.10
2023-03-02T15:25:09.941Z,7.28
2023-03-02T15:27:36.693Z,7.05
2023-03-02T15:30:04.693Z,6.60
2023-03-02T15:32:31.508Z,7.40
2023-03-02T15:34:58.356Z,6.65
2023-03-02T15:37:25.104Z,7.50
2023-03-02T15:39:55.834Z,7.20
2023-03-02T15:42:24.010Z,7.97
2023-03-02T15:44:51.701Z,8.15
2023-03-02T15:47:18.585Z,8.13
2023-03-02T15:49:45.425Z,8.07
2023-03-02T15:52:12.954Z,8.25
2023-03-02T15:54:40.670Z,7.30
2023-03-02T15:57:07.714Z,7.55
2023-03-02T15:59:34.893Z,7.10
2023-03-02T16:02:02.525Z,7.00
2023-03-02T16:04:31.795Z,7.28
2023-03-02T16:06:59.137Z,7.47
2023-03-02T16:09:28.870Z,7.82
2023-03-02T16:11:56.211Z,8.00
2023-03-02T16:14:26.292Z,8.18
2023-03-02T16:16:53.314Z,8.07
2023-03-02T16:19:21.152Z,7.63
2023-03-02T16:21:49.012Z,7.70
2023-03-02T16:24:17.085Z,8.07
2023-03-02T16:26:44.779Z,20.30
2023-03-02T16:29:12.960Z,9.40
2023-03-02T16:31:40.777Z,8.30
2023-03-02T16:34:09.711Z,8.10
2023-03-02T16:36:38.165Z,8.20
2023-03-02T16:39:05.734Z,8.13
2023-03-02T16:41:32.980Z,7.00
2023-03-02T16:44:00.281Z,6.90
2023-03-02T16:46:28.939Z,7.47
2023-03-02T16:48:56.170Z,7.77
2023-03-02T16:51:23.361Z,8.00
2023-03-02T16:53:50.568Z,7.33
2023-03-02T16:56:17.887Z,8.03
2023-03-02T16:58:45.294Z,10.23
2023-03-02T17:01:13.750Z,40.43
2023-03-02T17:03:41.288Z,9.23
2023-03-02T17:06:10.046Z,8.10
2023-03-02T17:08:37.683Z,8.77
2023-03-02T17:11:05.209Z,9.07
2023-03-02T17:13:32.499Z,9.27
2023-03-02T17:15:59.873Z,8.40
2023-03-02T17:18:30.198Z,7.73
2023-03-02T17:20:58.671Z,9.07
2023-03-02T17:23:27.530Z,8.13
2023-03-02T17:25:56.048Z,7.93
2023-03-02T17:28:23.379Z,8.80
2023-03-02T17:30:50.618Z,8.13
2023-03-02T17:33:18.265Z,8.67
2023-03-02T17:35:46.256Z,8.33
2023-03-02T17:38:14.424Z,9.63
2023-03-02T17:40:41.803Z,9.37
2023-03-02T17:43:09.132Z,9.47
2023-03-02T17:45:36.339Z,10.53
2023-03-02T17:48:03.881Z,10.40
2023-03-02T17:50:31.867Z,10.63
2023-03-02T17:53:00.049Z,11.10
2023-03-02T17:55:27.354Z,10.83
2023-03-02T17:57:54.618Z,11.73
2023-03-02T18:00:22.840Z,10.97
2023-03-02T18:02:50.421Z,11.53
2023-03-02T18:05:17.776Z,11.77
2023-03-02T18:07:45.195Z,11.57
2023-03-02T18:10:13.096Z,10.83
2023-03-02T18:12:40.293Z,11.23
2023-03-02T18:15:07.999Z,14.90
2023-03-02T18:17:35.266Z,12.03
2023-03-02T18:20:02.414Z,12.13
2023-03-02T18:22:29.609Z,13.83
2023-03-02T18:24:57.074Z,12.63
2023-03-02T18:27:24.301Z,12.70
2023-03-02T18:29:51.588Z,12.57
2023-03-02T18:32:18.742Z,12.47
2023-03-02T18:34:45.966Z,11.50
2023-03-02T18:37:13.225Z,13.03
2023-03-02T18:39:43.651Z,11.33
2023-03-02T18:42:12.658Z,13.53
2023-03-02T18:44:40.106Z,12.87
2023-03-02T18:47:07.683Z,13.17
2023-03-02T18:49:34.927Z,11.20
2023-03-02T18:52:05.799Z,11.87
2023-03-02T18:54:33.457Z,12.97
2023-03-02T18:57:01.535Z,12.87
2023-03-02T18:59:29.009Z,11.83
2023-03-02T19:01:55.943Z,11.53
2023-03-02T19:04:26.377Z,11.87
2023-03-02T19:06:56.050Z,11.43
2023-03-02T19:09:23.564Z,14.50
2023-03-02T19:11:51.152Z,13.60
2023-03-02T19:14:18.791Z,13.03
2023-03-02T19:16:47.159Z,13.53
2023-03-02T19:19:14.312Z,13.30
2023-03-02T19:21:41.438Z,13.30
2023-03-02T19:24:08.748Z,13.40
2023-03-02T19:26:36.189Z,13.17
2023-03-02T19:29:03.557Z,13.20
2023-03-02T19:31:32.834Z,13.80
2023-03-02T19:34:00.311Z,13.00
2023-03-02T19:36:27.572Z,13.13
2023-03-02T19:38:54.951Z,12.73
2023-03-02T19:41:22.300Z,13.47
2023-03-02T19:43:49.656Z,14.20
2023-03-02T19:46:17.409Z,13.77
2023-03-02T19:48:44.394Z,13.83
2023-03-02T19:51:12.118Z,14.37
2023-03-02T19:53:40.442Z,13.83
2023-03-02T19:56:11.590Z,14.37
2023-03-02T19:58:46.958Z,15.07
2023-03-02T20:01:16.735Z,14.27
2023-03-02T20:03:46.246Z,14.13
2023-03-02T20:06:13.533Z,15.00
2023-03-02T20:08:40.705Z,14.77
2023-03-02T20:11:08.201Z,15.43
2023-03-02T20:13:35.770Z,15.13
2023-03-02T20:16:03.112Z,18.47
2023-03-02T20:18:30.878Z,15.67
2023-03-02T20:20:59.375Z,15.77
2023-03-02T20:23:26.920Z,18.13
2023-03-02T20:25:54.244Z,16.10
2023-03-02T20:28:23.572Z,15.37
2023-03-02T20:30:56.723Z,16.63
2023-03-02T20:33:34.345Z,16.50
2023-03-02T20:36:03.058Z,16.30
2023-03-02T20:38:37.968Z,16.70
2023-03-02T20:41:06.531Z,17.40
2023-03-02T20:43:33.618Z,16.20
2023-03-02T20:46:00.665Z,17.17
2023-03-02T20:48:28.168Z,16.97
2023-03-02T20:50:55.346Z,19.23
2023-03-02T20:53:23.073Z,17.63
2023-03-02T20:55:50.611Z,18.40
2023-03-02T20:58:18.279Z,18.47
2023-03-02T21:00:45.650Z,17.13
2023-03-02T21:03:13.085Z,18.50
2023-03-02T21:05:41.120Z,19.50
2023-03-02T21:08:09.937Z,17.53
2023-03-02T21:10:38.300Z,18.27
2023-03-02T21:13:07.664Z,18.27
2023-03-02T21:15:35.563Z,19.47
2023-03-02T21:18:02.883Z,21.03
2023-03-02T21:20:32.027Z,21.30
2023-03-02T21:23:00.174Z,19.80
2023-03-02T21:25:28.298Z,21.23
2023-03-02T21:27:56.269Z,21.93
2023-03-02T21:30:28.375Z,20.70
2023-03-02T21:32:55.647Z,20.97
2023-03-02T21:35:23.498Z,22.00
2023-03-02T21:37:53.647Z,21.53
2023-03-02T21:40:25.605Z,22.87
2023-03-02T21:42:52.816Z,22.07
2023-03-02T21:45:20.091Z,21.80
2023-03-02T21:47:47.692Z,21.57
2023-03-02T21:50:17.090Z,23.87
2023-03-02T21:52:44.406Z,24.17
2023-03-02T21:55:13.252Z,22.57
2023-03-02T21:57:40.900Z,24.40
2023-03-02T22:00:09.940Z,22.90
2023-03-02T22:02:37.663Z,24.77
2023-03-02T22:05:04.936Z,23.97
2023-03-02T22:07:32.380Z,23.07
2023-03-02T22:09:59.533Z,26.40
2023-03-02T22:12:26.950Z,25.53
2023-03-02T22:14:54.530Z,27.27
2023-03-02T22:17:24.961Z,27.37
2023-03-02T22:19:53.072Z,29.83
2023-03-02T22:22:27.594Z,30.70
2023-03-02T22:24:55.445Z,32.40
2023-03-02T22:27:26.841Z,33.83
2023-03-02T22:29:56.614Z,34.10
2023-03-02T22:32:25.822Z,34.07
2023-03-02T22:34:54.339Z,40.13
2023-03-02T22:37:26.113Z,34.60
2023-03-02T22:39:55.178Z,36.50
2023-03-02T22:42:23.992Z,35.07
2023-03-02T22:45:02.581Z,33.53
2023-03-02T22:47:29.964Z,34.43
2023-03-02T22:50:02.316Z,34.37
2023-03-02T22:52:35.719Z,36.93
2023-03-02T22:55:03.659Z,40.40
2023-03-02T22:57:32.577Z,42.00
2023-03-02T23:00:11.738Z,41.83
2023-03-02T23:02:41.206Z,40.87
2023-03-02T23:05:27.423Z,40.53
2023-03-02T23:08:00.267Z,38.43
2023-03-02T23:10:27.453Z,38.27
2023-03-02T23:12:54.606Z,41.17
2023-03-02T23:15:21.927Z,40.47
2023-03-02T23:17:49.184Z,39.90
2023-03-02T23:20:16.499Z,41.50
2023-03-02T23:22:44.476Z,40.63
2023-03-02T23:25:11.902Z,40.63
2023-03-02T23:27:39.139Z,40.37
2023-03-02T23:30:06.694Z,42.40
2023-03-02T23:32:33.896Z,45.10
2023-03-02T23:35:01.067Z,41.47
2023-03-02T23:37:29.040Z,44.07
2023-03-02T23:39:56.163Z,41.17
2023-03-02T23:42:23.307Z,44.87
2023-03-02T23:44:50.482Z,42.53
2023-03-02T23:47:17.640Z,42.20
2023-03-02T23:49:44.738Z,38.90
2023-03-02T23:52:11.929Z,41.63
2023-03-02T23:54:39.147Z,37.67
2023-03-02T23:57:06.403Z,37.03
2023-03-02T23:59:33.603Z,35.47
